createdAt,value
2022-12-17T00:00:53.516Z,1.35
2022-12-17T00:03:39.573Z,1.37
2022-12-17T00:06:25.042Z,1.38
2022-12-17T00:09:10.093Z,1.37
2022-12-17T00:11:56.116Z,1.32
2022-12-17T00:14:42.225Z,1.31
2022-12-17T00:17:29.779Z,1.33
2022-12-17T00:20:17.474Z,1.33
2022-12-17T00:23:02.941Z,1.33
2022-12-17T00:25:48.303Z,1.34
2022-12-17T00:28:33.525Z,1.36
2022-12-17T00:31:20.151Z,1.36
2022-12-17T00:34:05.918Z,1.32
2022-12-17T00:36:51.425Z,1.32
2022-12-17T00:39:36.453Z,1.33
2022-12-17T00:42:22.070Z,1.33
2022-12-17T00:45:07.202Z,1.29
2022-12-17T00:47:53.863Z,1.28
2022-12-17T00:50:39.364Z,1.28
2022-12-17T00:53:24.512Z,1.26
2022-12-17T00:56:09.736Z,1.25
2022-12-17T00:58:55.140Z,1.29
2022-12-17T01:01:37.069Z,1.35
2022-12-17T01:04:23.755Z,1.32
2022-12-17T01:07:09.250Z,1.27
2022-12-17T01:09:51.597Z,1.26
2022-12-17T01:12:37.259Z,1.27
2022-12-17T01:15:23.230Z,1.26
2022-12-17T01:18:08.173Z,1.24
2022-12-17T01:20:54.841Z,1.25
2022-12-17T01:23:41.725Z,1.23
2022-12-17T01:26:29.469Z,1.22
2022-12-17T01:29:15.914Z,1.26
2022-12-17T01:32:01.485Z,1.30
2022-12-17T01:34:46.599Z,1.31
2022-12-17T01:37:33.408Z,1.33
2022-12-17T01:40:18.532Z,1.34
2022-12-17T01:43:05.632Z,1.33
2022-12-17T01:45:54.760Z,1.32
2022-12-17T01:48:43.738Z,1.34
2022-12-17T01:51:37.542Z,1.35
2022-12-17T01:54:25.340Z,1.33
2022-12-17T01:57:11.751Z,1.30
2022-12-17T02:00:04.524Z,1.29
2022-12-17T02:02:50.882Z,1.29
2022-12-17T02:05:40.809Z,1.31
2022-12-17T02:08:36.633Z,1.29
2022-12-17T02:11:32.933Z,1.28
2022-12-17T02:14:31.328Z,1.27
2022-12-17T02:17:21.264Z,1.27
2022-12-17T02:20:17.017Z,1.28
2022-12-17T02:23:16.839Z,1.29
2022-12-17T02:26:09.704Z,1.28
2022-12-17T02:29:12.042Z,1.24
2022-12-17T02:32:01.445Z,1.26
2022-12-17T02:34:46.970Z,1.26
2022-12-17T02:37:32.469Z,1.26
2022-12-17T02:40:18.200Z,1.29
2022-12-17T02:43:05.316Z,1.32
2022-12-17T02:45:52.622Z,1.31
2022-12-17T02:48:38.365Z,1.29
2022-12-17T02:51:24.233Z,1.30
2022-12-17T02:54:11.902Z,1.31
2022-12-17T02:56:57.966Z,1.31
2022-12-17T02:59:43.318Z,1.28
2022-12-17T03:02:30.001Z,1.27
2022-12-17T03:05:42.910Z,1.29
2022-12-17T03:08:20.579Z,1.27
2022-12-17T03:11:06.043Z,1.20
2022-12-17T03:13:51.294Z,1.20
2022-12-17T03:16:39.653Z,1.25
2022-12-17T03:19:28.346Z,1.24
2022-12-17T03:22:16.195Z,1.28
2022-12-17T03:25:01.717Z,1.26
2022-12-17T03:27:46.999Z,1.25
2022-12-17T03:30:36.043Z,1.27
2022-12-17T03:33:21.843Z,1.25
2022-12-17T03:36:11.337Z,1.24
2022-12-17T03:38:56.785Z,1.25
2022-12-17T03:41:42.169Z,1.26
2022-12-17T03:44:27.269Z,1.28
2022-12-17T03:47:12.620Z,1.28
2022-12-17T03:49:54.335Z,1.27
2022-12-17T03:52:41.666Z,1.26
2022-12-17T03:55:27.080Z,1.24
2022-12-17T03:58:12.452Z,1.24
2022-12-17T04:00:58.001Z,1.25
2022-12-17T04:03:43.771Z,1.24
2022-12-17T04:06:29.246Z,1.16
2022-12-17T04:09:16.050Z,1.18
2022-12-17T04:12:01.527Z,1.22
2022-12-17T04:14:46.802Z,1.21
2022-12-17T04:17:37.318Z,1.17
2022-12-17T04:20:23.188Z,1.15
2022-12-17T04:23:08.352Z,0.98
2022-12-17T04:25:54.841Z,0.95
2022-12-17T04:28:40.058Z,0.93
2022-12-17T04:31:25.722Z,0.92
2022-12-17T04:34:11.423Z,0.93
2022-12-17T04:36:57.461Z,0.98
2022-12-17T04:39:42.574Z,0.99
2022-12-17T04:42:43.666Z,0.97
2022-12-17T04:45:29.432Z,0.98
2022-12-17T04:48:20.201Z,0.93
2022-12-17T04:51:07.277Z,0.93
2022-12-17T04:53:53.021Z,0.96
2022-12-17T04:56:38.803Z,0.98
2022-12-17T04:59:25.716Z,0.98
2022-12-17T05:02:11.373Z,0.97
2022-12-17T05:04:56.668Z,0.98
2022-12-17T05:07:42.075Z,0.97
2022-12-17T05:10:27.852Z,0.97
2022-12-17T05:13:17.205Z,0.91
2022-12-17T05:16:04.524Z,0.92
2022-12-17T05:18:49.392Z,0.86
2022-12-17T05:21:34.722Z,0.91
2022-12-17T05:24:20.386Z,0.93
2022-12-17T05:27:05.879Z,0.90
2022-12-17T05:29:51.181Z,0.89
2022-12-17T05:32:37.827Z,0.92
2022-12-17T05:35:23.746Z,0.92
2022-12-17T05:38:08.987Z,0.90
2022-12-17T05:40:54.387Z,0.83
2022-12-17T05:43:45.003Z,0.81
2022-12-17T05:46:30.562Z,0.80
2022-12-17T05:49:17.689Z,0.86
2022-12-17T05:52:03.156Z,0.87
2022-12-17T05:54:48.419Z,0.86
2022-12-17T05:57:53.060Z,0.84
2022-12-17T06:00:41.413Z,0.86
2022-12-17T06:03:28.159Z,0.92
2022-12-17T06:06:16.283Z,0.94
2022-12-17T06:09:04.183Z,0.93
2022-12-17T06:11:49.495Z,0.91
2022-12-17T06:14:34.637Z,0.91
2022-12-17T06:17:20.007Z,0.90
2022-12-17T06:20:05.094Z,0.93
2022-12-17T06:22:51.764Z,0.92
2022-12-17T06:25:37.109Z,0.91
2022-12-17T06:28:33.829Z,0.90
2022-12-17T06:31:24.446Z,0.92
2022-12-17T06:34:18.459Z,0.93
2022-12-17T06:37:11.621Z,0.92
2022-12-17T06:40:39.385Z,0.91
2022-12-17T06:43:32.344Z,0.82
2022-12-17T06:47:11.173Z,0.85
2022-12-17T06:49:59.522Z,0.83
2022-12-17T06:52:52.201Z,0.84
2022-12-17T06:55:40.511Z,0.85
2022-12-17T07:17:32.181Z,0.95
2022-12-17T07:21:12.121Z,0.93
2022-12-17T07:23:51.031Z,0.91
2022-12-17T07:26:49.741Z,0.89
2022-12-17T07:33:04.159Z,0.91
2022-12-17T07:36:03.822Z,0.92
2022-12-17T07:38:55.255Z,0.92
2022-12-17T07:41:46.332Z,0.93
2022-12-17T07:44:41.377Z,0.89
2022-12-17T07:48:05.354Z,0.89
2022-12-17T07:51:04.394Z,0.87
2022-12-17T07:54:50.213Z,0.93
2022-12-17T07:57:38.712Z,0.92
2022-12-17T08:00:35.255Z,0.92
2022-12-17T08:03:25.234Z,0.91
2022-12-17T08:06:59.815Z,0.89
2022-12-17T08:25:28.572Z,0.95
2022-12-17T08:28:48.582Z,0.92
2022-12-17T08:31:21.937Z,0.91
2022-12-17T08:34:08.234Z,0.96
2022-12-17T08:36:59.770Z,0.99
2022-12-17T08:39:47.220Z,1.03
2022-12-17T08:42:36.852Z,1.06
2022-12-17T08:45:24.855Z,1.07
2022-12-17T08:48:10.583Z,1.06
2022-12-17T08:50:56.414Z,1.03
2022-12-17T09:00:43.221Z,1.11
2022-12-17T09:03:49.830Z,1.11
2022-12-17T09:06:39.395Z,1.08
2022-12-17T09:09:25.115Z,1.04
2022-12-17T09:12:10.625Z,1.04
2022-12-17T09:14:56.273Z,1.07
2022-12-17T12:45:04.717Z,0.38
2022-12-17T12:47:58.838Z,0.25
2022-12-17T12:50:56.585Z,0.17
2022-12-17T12:53:42.832Z,0.06
2022-12-17T12:56:47.632Z,0.06
2022-12-17T12:59:45.035Z,0.14
2022-12-17T13:02:45.221Z,0.17
2022-12-17T13:05:34.982Z,0.16
2022-12-17T13:08:05.072Z,0.19
2022-12-17T13:10:34.070Z,0.27
2022-12-17T13:13:13.207Z,0.27
2022-12-17T13:15:46.917Z,0.24
2022-12-17T13:18:28.617Z,0.13
2022-12-17T13:21:02.336Z,0.09
2022-12-17T13:23:34.590Z,0.04
2022-12-17T13:26:16.402Z,0.05
2022-12-17T13:28:49.399Z,0.03
2022-12-17T13:31:21.543Z,-0.08
2022-12-17T13:33:57.599Z,-0.15
2022-12-17T13:36:32.438Z,-0.21
2022-12-17T13:39:06.569Z,-0.21
2022-12-17T13:41:36.348Z,-0.19
2022-12-17T13:44:17.773Z,-0.25
2022-12-17T13:46:48.258Z,-0.25
2022-12-17T13:49:20.562Z,-0.28
2022-12-17T13:51:49.218Z,-0.26
2022-12-17T13:54:19.436Z,-0.26
2022-12-17T13:56:47.951Z,-0.33
2022-12-17T13:59:22.431Z,-0.37
2022-12-17T14:01:52.908Z,-0.39
2022-12-17T14:04:25.247Z,-0.31
2022-12-17T14:06:56.084Z,-0.36
2022-12-17T14:09:28.037Z,-0.38
2022-12-17T14:12:15.788Z,-0.35
2022-12-17T14:14:48.286Z,-0.40
2022-12-17T14:17:19.599Z,-0.48
2022-12-17T14:19:55.850Z,-0.44
2022-12-17T14:22:33.720Z,-0.48
2022-12-17T14:25:03.540Z,-0.56
2022-12-17T14:27:34.709Z,-0.60
2022-12-17T14:30:04.452Z,-0.67
2022-12-17T14:32:35.494Z,-0.66
2022-12-17T14:35:05.287Z,-0.68
2022-12-17T14:37:33.749Z,-0.71
2022-12-17T14:40:05.613Z,-0.72
2022-12-17T14:42:37.884Z,-0.78
2022-12-17T14:45:08.471Z,-0.80
2022-12-17T14:47:38.733Z,-0.76
2022-12-17T14:50:25.327Z,-0.74
2022-12-17T14:52:55.510Z,-0.77
2022-12-17T14:55:26.814Z,-0.80
2022-12-17T14:58:07.565Z,-0.81
2022-12-17T15:00:36.010Z,-0.85
2022-12-17T15:03:04.289Z,-0.88
2022-12-17T15:05:34.133Z,-0.87
2022-12-17T15:08:02.427Z,-0.89
2022-12-17T15:10:30.482Z,-0.91
2022-12-17T15:12:58.784Z,-0.95
2022-12-17T15:15:26.585Z,-1.01
2022-12-17T15:17:54.474Z,-1.05
2022-12-17T15:20:22.805Z,-1.07
2022-12-17T15:22:52.151Z,-1.09
2022-12-17T15:25:21.003Z,-1.12
2022-12-17T15:27:48.914Z,-1.17
2022-12-17T15:30:19.002Z,-1.17
2022-12-17T15:32:48.664Z,-1.23
2022-12-17T15:35:19.902Z,-1.26
2022-12-17T15:37:48.323Z,-1.30
2022-12-17T15:40:28.401Z,-1.32
2022-12-17T15:43:13.824Z,-1.33
2022-12-17T15:45:45.951Z,-1.37
2022-12-17T15:48:16.506Z,-1.38
2022-12-17T15:50:45.373Z,-1.40
2022-12-17T15:53:13.805Z,-1.42
2022-12-17T15:55:43.747Z,-1.44
2022-12-17T15:58:11.893Z,-1.46
2022-12-17T16:00:41.606Z,-1.47
2022-12-17T16:03:10.195Z,-1.46
2022-12-17T16:05:38.366Z,-1.46
2022-12-17T16:08:10.815Z,-1.50
2022-12-17T16:10:39.603Z,-1.53
2022-12-17T16:13:09.160Z,-1.55
2022-12-17T16:15:37.116Z,-1.59
2022-12-17T16:18:05.095Z,-1.62
2022-12-17T16:20:33.066Z,-1.63
2022-12-17T16:23:01.628Z,-1.62
2022-12-17T16:25:29.672Z,-1.64
2022-12-17T16:28:00.287Z,-1.63
2022-12-17T16:30:29.625Z,-1.66
2022-12-17T16:32:59.401Z,-1.71
2022-12-17T16:35:28.460Z,-1.74
2022-12-17T16:37:57.035Z,-1.81
2022-12-17T16:40:24.952Z,-1.85
2022-12-17T16:42:52.845Z,-1.91
2022-12-17T16:45:21.045Z,-1.93
2022-12-17T16:47:54.802Z,-1.96
2022-12-17T16:50:23.873Z,-1.96
2022-12-17T16:52:51.723Z,-1.96
2022-12-17T16:55:19.783Z,-1.99
2022-12-17T16:57:49.860Z,-2.04
2022-12-17T17:00:18.410Z,-2.09
2022-12-17T17:02:53.036Z,-2.10
2022-12-17T17:05:23.090Z,-2.15
2022-12-17T17:07:51.123Z,-2.14
2022-12-17T17:10:20.699Z,-2.18
2022-12-17T17:12:51.730Z,-2.22
2022-12-17T17:15:31.298Z,-2.24
2022-12-17T17:18:02.317Z,-2.26
2022-12-17T17:20:32.620Z,-2.29
2022-12-17T17:23:03.214Z,-2.31
2022-12-17T17:25:54.173Z,-2.36
2022-12-17T17:28:35.608Z,-2.39
2022-12-17T17:34:32.659Z,-2.41
2022-12-17T17:37:15.803Z,-2.42
2022-12-17T18:17:09.959Z,-2.90
2022-12-17T18:19:50.319Z,-2.94
2022-12-17T18:22:18.403Z,-2.97
2022-12-17T18:24:48.289Z,-2.96
2022-12-17T18:27:19.354Z,-2.98
2022-12-17T18:29:47.555Z,-2.96
2022-12-17T18:32:17.204Z,-2.95
2022-12-17T18:35:14.566Z,-2.97
2022-12-17T18:38:15.810Z,-2.98
2022-12-17T18:40:44.039Z,-2.96
2022-12-17T18:44:41.833Z,-2.96
2022-12-17T18:48:08.194Z,-2.99
2022-12-17T18:51:10.171Z,-3.04
2022-12-17T18:53:44.552Z,-3.05
2022-12-17T19:21:37.394Z,-3.21
2022-12-17T19:24:12.861Z,-3.25
2022-12-17T19:40:06.086Z,-3.29
2022-12-17T19:42:37.592Z,-3.34
2022-12-17T19:45:06.607Z,-3.37
2022-12-17T19:47:34.562Z,-3.44
2022-12-17T19:50:10.730Z,-3.50
2022-12-17T19:52:38.721Z,-3.50
2022-12-17T19:55:09.037Z,-3.51
2022-12-17T19:57:37.118Z,-3.55
2022-12-17T20:00:05.524Z,-3.52
2022-12-17T20:02:33.523Z,-3.51
2022-12-17T20:05:02.026Z,-3.51
2022-12-17T20:07:29.985Z,-3.52
2022-12-17T20:09:57.965Z,-3.51
2022-12-17T20:12:33.344Z,-3.54
2022-12-17T20:27:51.532Z,-3.69
2022-12-17T20:30:19.810Z,-3.70
2022-12-17T20:32:48.138Z,-3.68
2022-12-17T20:35:16.025Z,-3.69
2022-12-17T20:37:43.999Z,-3.69
2022-12-17T20:40:12.313Z,-3.69
2022-12-17T20:42:40.203Z,-3.71
2022-12-17T20:45:10.596Z,-3.70
2022-12-17T20:47:38.527Z,-3.72
2022-12-17T20:50:07.319Z,-3.74
2022-12-17T20:52:51.041Z,-3.76
2022-12-17T20:55:39.347Z,-3.77
2022-12-17T20:58:38.744Z,-3.76
